Time;durP1;ratioP1;P1;durP2;ratioP2;P2;SDS_P1;SDS_P2;PMS_P1;PMS_P2;Temp;Humidity;BMP_temperature;BMP_pressure;BME280_temperature;BME280_humidity;BME280_pressure;Samples;Min_cycle;Max_cycle;Signal;HPM_P1;HPM_P2
2022/12/22 03:27:11;;;;;;;6.50;5.90;;;;;;;8.84;100.00;99019.91;5101972;28;20561;-62
2022/12/22 03:29:38;;;;;;;6.70;6.00;;;;;;;8.78;100.00;99023.19;5103213;28;20456;-62
2022/12/22 03:32:06;;;;;;;7.10;6.37;;;;;;;8.91;100.00;99025.44;5102758;28;20536;-62
2022/12/22 03:34:33;;;;;;;6.33;5.50;;;;;;;8.80;100.00;99028.34;5102308;28;20455;-62
2022/12/22 03:36:59;;;;;;;6.23;5.60;;;;;;;8.90;100.00;99033.56;5102327;28;20555;-62
2022/12/22 03:39:26;;;;;;;7.90;6.83;;;;;;;8.87;100.00;99029.41;5102993;28;20472;-62
2022/12/22 03:47:23;;;;;;;7.60;6.80;;;;;;;8.97;100.00;99008.78;5102151;28;20482;-63
2022/12/22 03:49:50;;;;;;;7.90;6.93;;;;;;;8.96;100.00;99014.28;5101753;28;20455;-63
2022/12/22 03:52:17;;;;;;;8.93;6.80;;;;;;;9.02;100.00;99011.78;5101850;28;20548;-62
2022/12/22 03:54:43;;;;;;;7.83;7.13;;;;;;;9.03;100.00;98996.66;5101752;28;20432;-63
2022/12/22 03:57:10;;;;;;;8.13;6.87;;;;;;;8.91;100.00;98993.44;5102122;28;20480;-62
2022/12/22 03:59:37;;;;;;;8.83;7.53;;;;;;;8.99;100.00;98988.16;5102164;28;21057;-62
2022/12/22 04:02:03;;;;;;;11.00;7.07;;;;;;;8.95;100.00;98986.78;5101830;28;20483;-62
2022/12/22 04:04:33;;;;;;;8.80;7.00;;;;;;;8.95;100.00;98996.63;5101732;28;20483;-62
2022/12/22 04:06:59;;;;;;;6.50;5.83;;;;;;;8.98;100.00;98988.31;5101271;28;20792;-62
2022/12/22 04:09:26;;;;;;;7.73;6.93;;;;;;;8.89;100.00;98978.59;5101347;28;20535;-63
2022/12/22 04:14:38;;;;;;;7.57;6.87;;;;;;;8.92;100.00;98968.44;5101287;28;20469;-62
2022/12/22 04:17:06;;;;;;;7.60;6.67;;;;;;;8.92;100.00;98970.28;5101931;28;20490;-63
2022/12/22 04:19:34;;;;;;;6.83;6.17;;;;;;;8.90;100.00;98967.78;5101304;28;20451;-62
2022/12/22 04:22:00;;;;;;;7.00;6.00;;;;;;;8.90;100.00;98966.94;5101027;28;20480;-62
2022/12/22 04:24:27;;;;;;;6.40;5.73;;;;;;;8.97;100.00;98966.13;5101779;28;20489;-63
2022/12/22 04:26:54;;;;;;;7.10;6.40;;;;;;;8.95;100.00;98961.97;5100536;28;20486;-62
2022/12/22 04:29:20;;;;;;;12.50;6.10;;;;;;;8.87;100.00;98954.78;5101638;28;20606;-63
2022/12/22 04:31:47;;;;;;;6.50;5.90;;;;;;;8.89;100.00;98954.59;5101116;28;20463;-62
2022/12/22 04:34:14;;;;;;;7.13;6.43;;;;;;;8.86;100.00;98953.94;5100739;28;20451;-62
2022/12/22 04:36:42;;;;;;;10.60;6.90;;;;;;;8.94;100.00;98953.13;5101300;28;20544;-63
2022/12/22 04:39:09;;;;;;;6.90;6.20;;;;;;;8.91;100.00;98953.47;5101501;28;20479;-62
2022/12/22 04:41:36;;;;;;;7.20;6.50;;;;;;;9.01;100.00;98950.66;5100797;28;20476;-62
2022/12/22 04:44:03;;;;;;;6.27;5.70;;;;;;;9.13;100.00;98949.34;5101231;28;20541;-62
2022/12/22 04:46:29;;;;;;;7.43;5.63;;;;;;;9.15;100.00;98947.34;5100726;28;20527;-62
2022/12/22 04:48:56;;;;;;;5.70;5.20;;;;;;;9.13;100.00;98944.03;5100014;28;20456;-62
2022/12/22 04:51:23;;;;;;;7.33;6.30;;;;;;;9.18;100.00;98935.50;5100355;28;20854;-61
2022/12/22 04:53:51;;;;;;;7.80;6.10;;;;;;;9.17;100.00;98934.69;5101336;28;20842;-62
2022/12/22 04:56:18;;;;;;;6.83;6.20;;;;;;;9.15;100.00;98920.69;5100741;28;20474;-63
2022/12/22 04:58:45;;;;;;;8.30;6.90;;;;;;;9.04;100.00;98929.84;5100894;28;20455;-62
2022/12/22 05:01:13;;;;;;;7.17;6.53;;;;;;;9.08;100.00;98921.50;5100540;28;20472;-63
2022/12/22 05:03:40;;;;;;;9.63;6.80;;;;;;;9.05;100.00;98909.34;5100228;28;20523;-62
2022/12/22 05:06:07;;;;;;;8.40;7.27;;;;;;;9.03;100.00;98912.16;5100391;28;20486;-62
2022/12/22 05:08:34;;;;;;;16.83;7.17;;;;;;;9.01;100.00;98903.50;5101718;28;20459;-62
2022/12/22 05:11:03;;;;;;;7.10;6.40;;;;;;;8.97;100.00;98902.16;5084985;28;20504;-62
2022/12/22 05:13:29;;;;;;;11.50;8.27;;;;;;;8.92;100.00;98898.31;5084803;28;20776;-62
2022/12/22 05:16:03;;;;;;;20.67;8.30;;;;;;;8.95;100.00;98900.66;5100204;28;20524;-62
2022/12/22 05:18:30;;;;;;;10.13;7.43;;;;;;;8.86;100.00;98905.97;5100026;28;20435;-61
2022/12/22 05:20:56;;;;;;;8.30;7.50;;;;;;;8.96;100.00;98892.50;5098744;28;21057;-61
2022/12/22 05:23:23;;;;;;;7.83;7.10;;;;;;;8.98;100.00;98887.84;5098586;28;20451;-62
2022/12/22 05:25:50;;;;;;;9.13;8.00;;;;;;;8.93;100.00;98897.31;5092653;28;20472;-61
2022/12/22 05:28:18;;;;;;;8.37;7.30;;;;;;;8.92;100.00;98900.97;5100369;28;20501;-62
2022/12/22 05:30:44;;;;;;;44.63;9.80;;;;;;;8.89;100.00;98901.28;5086594;28;20488;-62
2022/12/22 05:33:11;;;;;;;132.40;17.17;;;;;;;8.85;100.00;98898.97;5072574;28;20468;-62
2022/12/22 05:35:38;;;;;;;46.07;11.37;;;;;;;8.84;100.00;98897.28;5084654;28;20835;-62
2022/12/22 05:38:05;;;;;;;17.33;9.30;;;;;;;8.85;100.00;98895.47;5089781;28;20578;-62
2022/12/22 05:40:32;;;;;;;12.30;9.53;;;;;;;8.81;100.00;98894.13;5085756;28;20532;-65
2022/12/22 05:42:59;;;;;;;15.37;10.30;;;;;;;8.78;100.00;98892.59;5084663;28;20945;-65
2022/12/22 05:45:27;;;;;;;12.77;10.10;;;;;;;8.89;100.00;98879.97;5095202;28;20470;-65
2022/12/22 05:47:54;;;;;;;21.30;10.00;;;;;;;8.86;100.00;98883.81;5097898;28;20448;-65
2022/12/22 05:50:22;;;;;;;34.50;10.63;;;;;;;8.83;100.00;98889.47;5099714;28;20493;-65
2022/12/22 05:52:49;;;;;;;36.97;10.63;;;;;;;8.76;100.00;98883.94;5100237;28;20454;-66
2022/12/22 05:55:16;;;;;;;14.80;10.40;;;;;;;8.85;100.00;98882.13;5100380;28;20439;-66
2022/12/22 05:57:43;;;;;;;18.70;9.73;;;;;;;8.78;100.00;98873.13;5097287;28;20896;-66
2022/12/22 06:00:13;;;;;;;22.30;10.80;;;;;;;8.70;100.00;98884.59;5100250;28;20447;-65
2022/12/22 06:02:41;;;;;;;26.33;10.17;;;;;;;8.66;100.00;98878.78;5099516;28;20818;-66
2022/12/22 06:05:09;;;;;;;38.80;11.50;;;;;;;8.70;100.00;98876.63;5100311;28;21033;-65
2022/12/22 06:07:36;;;;;;;12.77;9.57;;;;;;;8.66;100.00;98873.44;5094011;28;20602;-65
2022/12/22 06:10:03;;;;;;;11.63;8.67;;;;;;;8.73;100.00;98865.63;5099134;28;20512;-70
2022/12/22 06:12:30;;;;;;;15.47;9.07;;;;;;;8.69;100.00;98866.13;5096156;28;20479;-70
2022/12/22 06:14:56;;;;;;;10.83;8.30;;;;;;;8.73;100.00;98865.63;5101241;28;20455;-70
2022/12/22 06:17:23;;;;;;;12.30;9.70;;;;;;;8.72;100.00;98868.47;5099515;28;20493;-70
2022/12/22 06:19:51;;;;;;;12.77;9.53;;;;;;;8.69;100.00;98866.13;5096793;28;20484;-71
2022/12/22 06:22:18;;;;;;;12.50;9.83;;;;;;;8.76;100.00;98856.47;5089767;28;20490;-71
2022/12/22 06:24:45;;;;;;;11.73;9.40;;;;;;;8.65;100.00;98861.09;5100844;28;20471;-70
2022/12/22 06:27:12;;;;;;;14.97;10.17;;;;;;;8.62;100.00;98861.41;5099362;28;20525;-69
2022/12/22 06:29:39;;;;;;;11.83;9.80;;;;;;;8.64;100.00;98858.59;5100297;28;20507;-69
2022/12/22 06:32:06;;;;;;;11.93;9.17;;;;;;;8.61;100.00;98857.09;5102609;28;20497;-69
2022/12/22 06:34:33;;;;;;;18.73;9.93;;;;;;;8.65;100.00;98847.78;5104077;28;20451;-69
2022/12/22 06:37:01;;;;;;;12.07;9.40;;;;;;;8.65;100.00;98852.28;5101864;28;20512;-71
2022/12/22 06:39:27;;;;;;;13.63;10.90;;;;;;;8.69;100.00;98850.97;5094438;28;20475;-65
2022/12/22 06:44:38;;;;;;;13.90;10.90;;;;;;;8.71;100.00;98858.78;5104076;28;20474;-65
2022/12/22 06:47:05;;;;;;;19.90;11.60;;;;;;;8.56;100.00;98858.56;5081466;28;20503;-67
2022/12/22 06:49:32;;;;;;;14.13;9.93;;;;;;;8.55;100.00;98864.91;5088483;28;20447;-67
2022/12/22 06:51:58;;;;;;;17.10;10.77;;;;;;;8.59;100.00;98872.44;5103298;28;20483;-65
2022/12/22 06:54:27;;;;;;;18.60;11.70;;;;;;;8.56;100.00;98864.75;5088793;28;20468;-65
2022/12/22 06:56:54;;;;;;;19.67;10.90;;;;;;;8.55;100.00;98863.06;5103651;28;20520;-65
2022/12/22 06:59:20;;;;;;;31.03;12.40;;;;;;;8.53;100.00;98867.72;5103557;28;20477;-66
2022/12/22 07:01:47;;;;;;;53.13;12.73;;;;;;;8.59;100.00;98861.78;5088687;28;20480;-66
2022/12/22 07:04:19;;;;;;;37.17;13.03;;;;;;;8.56;100.00;98867.41;5094703;28;20495;-66
2022/12/22 07:06:46;;;;;;;36.83;11.77;;;;;;;8.52;100.00;98868.72;5090637;28;20517;-66
2022/12/22 07:09:13;;;;;;;30.80;10.77;;;;;;;8.50;100.00;98867.22;5103702;28;20447;-66
2022/12/22 07:11:41;;;;;;;27.87;10.93;;;;;;;8.59;100.00;98874.22;5103302;28;20479;-66
2022/12/22 07:14:09;;;;;;;26.00;10.57;;;;;;;8.40;100.00;98872.63;5084419;28;20487;-66
2022/12/22 07:16:36;;;;;;;120.27;19.10;;;;;;;8.27;100.00;98867.78;5083505;28;20514;-66
2022/12/22 07:19:02;;;;;;;27.93;13.07;;;;;;;8.32;100.00;98878.78;5081565;28;20444;-66
2022/12/22 07:21:29;;;;;;;137.70;21.73;;;;;;;8.26;100.00;98879.41;5085502;28;20498;-66
2022/12/22 07:23:56;;;;;;;153.10;20.70;;;;;;;8.35;100.00;98869.63;5086575;28;20456;-66
2022/12/22 07:26:23;;;;;;;154.13;20.60;;;;;;;8.33;100.00;98874.28;5095523;28;20567;-66
2022/12/22 07:28:51;;;;;;;77.63;15.87;;;;;;;8.38;100.00;98871.97;5096707;28;20483;-66
2022/12/22 07:31:18;;;;;;;67.40;15.67;;;;;;;8.46;100.00;98872.03;5076017;28;20510;-65
2022/12/22 07:33:45;;;;;;;66.13;15.77;;;;;;;8.43;100.00;98867.84;5076128;28;20485;-66
2022/12/22 07:36:14;;;;;;;44.60;14.70;;;;;;;8.44;100.00;98864.22;5085820;28;20484;-65
2022/12/22 07:38:43;;;;;;;58.37;16.07;;;;;;;8.41;100.00;98871.66;5063757;28;20489;-66
2022/12/22 07:43:56;;;;;;;21.10;13.70;;;;;;;8.37;100.00;98880.97;5059792;28;20445;-66
2022/12/22 07:46:24;;;;;;;102.83;16.90;;;;;;;8.31;100.00;98874.44;5067099;28;20481;-66
2022/12/22 07:51:35;;;;;;;23.43;12.80;;;;;;;8.42;100.00;98889.28;5076598;28;20522;-66
2022/12/22 07:54:05;;;;;;;52.90;15.63;;;;;;;8.37;100.00;98891.63;5069476;28;20449;-66
2022/12/22 07:56:31;;;;;;;30.57;14.20;;;;;;;8.35;100.00;98899.78;5053035;28;20537;-67
2022/12/22 07:59:00;;;;;;;21.60;13.50;;;;;;;8.39;100.00;98895.78;5057272;28;20468;-64
2022/12/22 08:01:27;;;;;;;26.23;14.73;;;;;;;8.40;100.00;98886.81;5061464;28;20527;-65
2022/12/22 08:03:53;;;;;;;17.50;13.30;;;;;;;8.39;100.00;98893.13;5052357;28;20884;-65
2022/12/22 08:06:20;;;;;;;20.63;13.00;;;;;;;8.44;100.00;98903.34;5057082;28;20485;-66
2022/12/22 08:08:47;;;;;;;18.67;13.23;;;;;;;8.58;100.00;98908.03;5061635;28;20454;-66
2022/12/22 08:11:13;;;;;;;16.53;12.53;;;;;;;8.51;100.00;98906.19;5061512;28;21036;-66
2022/12/22 08:13:40;;;;;;;22.20;14.90;;;;;;;8.42;100.00;98913.25;5063536;28;20475;-66
2022/12/22 08:16:11;;;;;;;21.13;14.40;;;;;;;8.41;100.00;98917.75;5069183;28;20476;-65
2022/12/22 08:18:38;;;;;;;19.47;13.90;;;;;;;8.42;100.00;98908.81;5067487;28;20484;-66
2022/12/22 08:21:06;;;;;;;24.70;14.07;;;;;;;8.43;100.00;98910.47;5065903;28;20526;-66
2022/12/22 08:23:33;;;;;;;24.07;14.73;;;;;;;8.44;100.00;98912.16;5081022;28;20440;-66
2022/12/22 08:26:03;;;;;;;24.83;15.87;;;;;;;8.44;100.00;98914.00;5066070;28;20507;-66
2022/12/22 08:28:32;;;;;;;19.43;14.20;;;;;;;8.44;100.00;98916.66;5065213;28;20510;-66
2022/12/22 08:31:00;;;;;;;26.17;16.40;;;;;;;8.47;100.00;98922.50;5069506;28;20477;-66
2022/12/22 08:33:29;;;;;;;20.37;14.43;;;;;;;8.48;100.00;98929.47;5061687;28;20453;-67
2022/12/22 08:35:58;;;;;;;25.27;16.60;;;;;;;8.46;100.00;98927.97;5060785;28;20481;-66
2022/12/22 08:38:26;;;;;;;34.53;16.80;;;;;;;8.42;100.00;98937.22;5072779;28;20488;-66
2022/12/22 08:40:53;;;;;;;18.73;13.37;;;;;;;8.40;100.00;98937.41;5096732;28;20464;-66
2022/12/22 08:43:21;;;;;;;25.63;16.10;;;;;;;8.48;100.00;98929.47;5083541;28;20447;-66
2022/12/22 08:45:48;;;;;;;19.40;15.10;;;;;;;8.48;100.00;98932.13;5083461;28;20483;-66
2022/12/22 08:48:15;;;;;;;24.07;14.57;;;;;;;8.52;100.00;98926.50;5080085;28;20877;-66
2022/12/22 08:50:46;;;;;;;20.10;13.90;;;;;;;8.56;100.00;98938.47;5082380;28;20981;-66
2022/12/22 08:53:12;;;;;;;18.30;13.60;;;;;;;8.59;100.00;98941.69;5097463;28;20439;-66
2022/12/22 08:55:40;;;;;;;19.50;13.97;;;;;;;8.61;100.00;98941.50;5099781;28;20509;-67
2022/12/22 08:58:07;;;;;;;33.03;14.80;;;;;;;8.47;100.00;98945.59;5100307;28;20455;-66
2022/12/22 09:00:34;;;;;;;21.20;14.17;;;;;;;8.65;100.00;98948.19;5098055;28;20467;-65
2022/12/22 09:03:02;;;;;;;28.67;16.27;;;;;;;8.60;100.00;98956.66;5100605;28;20483;-65
2022/12/22 09:05:30;;;;;;;27.07;13.80;;;;;;;8.71;100.00;98965.38;5100158;28;20471;-66
2022/12/22 09:08:01;;;;;;;21.27;14.47;;;;;;;8.72;100.00;98962.53;5099710;28;20431;-66
2022/12/22 09:10:28;;;;;;;21.70;14.17;;;;;;;8.85;100.00;98967.41;5100571;28;20489;-66
2022/12/22 09:12:55;;;;;;;21.47;12.70;;;;;;;8.96;100.00;98969.81;5099430;28;20447;-67
2022/12/22 09:15:22;;;;;;;18.67;11.77;;;;;;;9.05;100.00;98976.00;5079535;28;20471;-66
2022/12/22 09:17:50;;;;;;;18.03;11.57;;;;;;;9.19;100.00;98967.34;5081795;28;20459;-66
2022/12/22 09:20:18;;;;;;;22.50;12.90;;;;;;;9.23;100.00;98973.19;5099628;28;20678;-66
2022/12/22 09:22:45;;;;;;;21.50;12.73;;;;;;;9.30;100.00;98973.38;5099234;28;20473;-67
2022/12/22 09:25:16;;;;;;;23.20;13.23;;;;;;;9.27;100.00;98982.56;5095008;28;20705;-66
2022/12/22 09:27:43;;;;;;;18.90;12.13;;;;;;;9.31;100.00;98988.41;5089322;28;20439;-66
2022/12/22 09:30:11;;;;;;;23.67;12.53;;;;;;;9.34;100.00;98982.72;5087754;28;20443;-66
2022/12/22 09:32:38;;;;;;;24.43;13.67;;;;;;;9.24;100.00;98981.03;5079376;28;20425;-66
2022/12/22 09:35:06;;;;;;;23.07;14.03;;;;;;;9.25;100.00;98989.84;5090114;28;20451;-66
2022/12/22 09:37:33;;;;;;;21.43;13.67;;;;;;;9.31;100.00;98988.41;5095320;28;20911;-67
2022/12/22 09:40:00;;;;;;;22.40;13.17;;;;;;;9.39;100.00;98983.91;5081587;28;20479;-66
2022/12/22 09:42:30;;;;;;;23.87;14.37;;;;;;;9.41;100.00;98989.91;5071449;28;20656;-66
2022/12/22 09:44:57;;;;;;;22.73;13.97;;;;;;;9.24;100.00;99004.22;5071434;28;21274;-66
2022/12/22 09:47:29;;;;;;;25.00;12.20;;;;;;;9.34;100.00;99006.72;5068389;28;20928;-66
2022/12/22 09:49:57;;;;;;;22.90;13.70;;;;;;;9.44;100.00;99002.06;5079298;28;20452;-67
2022/12/22 09:52:44;;;;;;;24.03;13.20;;;;;;;9.56;100.00;99013.28;5079090;28;20529;-66
2022/12/22 09:55:28;;;;;;;26.30;14.67;;;;;;;9.80;100.00;99004.44;5078393;28;20467;-66
2022/12/22 09:57:56;;;;;;;24.90;13.63;;;;;;;9.74;100.00;99021.16;5076971;28;20921;-66
2022/12/22 10:00:25;;;;;;;25.20;13.60;;;;;;;9.70;100.00;99017.13;5079336;28;20452;-66
2022/12/22 10:02:58;;;;;;;26.57;12.93;;;;;;;9.71;100.00;99024.13;5079681;28;20451;-66
2022/12/22 10:05:37;;;;;;;26.33;13.80;;;;;;;9.87;100.00;99031.31;5077400;28;20475;-66
2022/12/22 10:08:11;;;;;;;28.30;13.70;;;;;;;9.75;100.00;99022.81;5079745;28;20449;-67
2022/12/22 10:10:40;;;;;;;31.07;14.57;;;;;;;9.99;100.00;99032.66;5078703;28;20476;-67
2022/12/22 10:13:17;;;;;;;27.13;14.50;;;;;;;10.17;100.00;99030.66;5079288;28;20479;-67
2022/12/22 10:15:44;;;;;;;27.27;13.53;;;;;;;10.21;100.00;99038.31;5076812;28;20912;-66
2022/12/22 10:18:14;;;;;;;27.57;15.03;;;;;;;10.32;100.00;99030.00;5079747;28;20459;-67
2022/12/22 10:20:43;;;;;;;26.63;14.43;;;;;;;10.21;100.00;99033.81;5077320;28;21012;-67
2022/12/22 10:23:17;;;;;;;26.13;14.30;;;;;;;10.64;100.00;99034.47;5068137;28;20838;-64
2022/12/22 10:25:59;;;;;;;23.60;13.57;;;;;;;10.66;100.00;99036.94;5075223;28;20499;-63
2022/12/22 10:28:33;;;;;;;22.47;13.23;;;;;;;10.32;100.00;99049.53;5078603;28;20460;-63
2022/12/22 10:31:16;;;;;;;22.70;13.20;;;;;;;10.32;100.00;99044.19;5079158;28;20472;-64
2022/12/22 10:33:47;;;;;;;22.60;13.37;;;;;;;10.11;100.00;99051.84;5078426;28;20586;-64
2022/12/22 10:36:14;;;;;;;18.17;11.70;;;;;;;10.26;100.00;99050.19;5076285;28;20522;-63
2022/12/22 10:38:54;;;;;;;22.33;12.50;;;;;;;10.17;100.00;99052.03;5085658;28;20479;-63
2022/12/22 10:41:24;;;;;;;21.00;12.17;;;;;;;10.47;100.00;99055.03;5095719;28;20475;-64
2022/12/22 10:43:55;;;;;;;24.93;12.67;;;;;;;10.41;100.00;99058.38;5091257;28;20956;-63
2022/12/22 10:46:33;;;;;;;21.63;11.77;;;;;;;10.42;100.00;99065.41;5092207;28;20491;-64
2022/12/22 10:49:15;;;;;;;16.27;10.10;;;;;;;10.14;100.00;99079.06;5097739;28;20455;-64
2022/12/22 10:51:44;;;;;;;19.27;10.03;;;;;;;10.06;100.00;99072.88;5098021;28;20505;-64
2022/12/22 10:54:24;;;;;;;17.33;9.90;;;;;;;10.01;100.00;99086.72;5094070;28;20459;-64
2022/12/22 10:57:01;;;;;;;16.33;9.80;;;;;;;9.83;100.00;99091.41;5097744;28;20535;-64
2022/12/22 10:59:32;;;;;;;16.20;10.80;;;;;;;9.70;100.00;99100.69;5084154;28;20470;-64
2022/12/22 11:02:24;;;;;;;16.50;9.93;;;;;;;9.76;100.00;99105.38;5099260;28;20536;-63
2022/12/22 11:04:52;;;;;;;16.93;10.43;;;;;;;9.77;100.00;99106.19;5098721;28;20459;-63
2022/12/22 11:07:19;;;;;;;17.33;10.77;;;;;;;9.89;100.00;99112.06;5099238;28;20507;-64
2022/12/22 11:09:46;;;;;;;15.83;9.80;;;;;;;9.81;100.00;99112.91;5096875;28;20518;-64
2022/12/22 11:12:21;;;;;;;15.70;10.20;;;;;;;9.71;100.00;99120.22;5078410;28;20568;-64
2022/12/22 11:14:54;;;;;;;24.07;11.17;;;;;;;9.66;100.00;99119.88;5100004;28;20434;-64
2022/12/22 11:17:28;;;;;;;18.70;11.43;;;;;;;9.58;100.00;99128.66;5093815;28;20514;-64
2022/12/22 11:20:05;;;;;;;23.60;12.27;;;;;;;9.46;100.00;99137.97;5088677;28;21024;-64
2022/12/22 11:22:39;;;;;;;22.43;13.27;;;;;;;9.59;100.00;99127.69;5078534;28;20476;-64
2022/12/22 11:25:24;;;;;;;26.67;14.03;;;;;;;9.59;100.00;99127.69;5084831;28;20451;-64
2022/12/22 11:28:01;;;;;;;30.17;14.23;;;;;;;9.59;100.00;99131.19;5082496;28;20501;-64
2022/12/22 11:30:36;;;;;;;32.70;15.57;;;;;;;9.60;100.00;99135.53;5076465;28;20464;-64
2022/12/22 11:33:15;;;;;;;25.30;15.17;;;;;;;9.72;100.00;99130.75;5085674;28;20516;-64
2022/12/22 11:35:51;;;;;;;30.53;15.00;;;;;;;9.78;100.00;99140.75;5087836;28;20728;-64
2022/12/22 11:38:25;;;;;;;26.17;15.17;;;;;;;10.00;100.00;99138.47;5074335;28;20945;-64
2022/12/22 11:41:00;;;;;;;26.80;14.50;;;;;;;10.09;100.00;99140.16;5087247;28;20516;-64
2022/12/22 11:43:31;;;;;;;28.73;15.40;;;;;;;10.13;100.00;99146.81;5099354;28;20485;-64
2022/12/22 11:46:15;;;;;;;27.37;15.80;;;;;;;10.26;100.00;99141.00;5097371;28;20476;-64
2022/12/22 11:48:51;;;;;;;26.70;15.00;;;;;;;10.42;100.00;99150.91;5086249;28;20455;-64
2022/12/22 11:51:30;;;;;;;30.00;16.93;;;;;;;10.77;100.00;99146.19;5098922;28;20881;-64
2022/12/22 11:54:17;;;;;;;22.40;14.80;;;;;;;10.66;100.00;99141.19;5098179;28;20477;-64
2022/12/22 11:56:45;;;;;;;23.30;13.90;;;;;;;11.43;100.00;99141.50;5100560;28;20475;-64
2022/12/22 11:59:33;;;;;;;25.90;15.77;;;;;;;12.82;94.72;99139.75;5086079;28;20523;-64
2022/12/22 12:02:24;;;;;;;27.47;16.03;;;;;;;13.77;89.80;99147.28;5100832;28;20480;-64
2022/12/22 12:05:15;;;;;;;19.63;14.83;;;;;;;14.78;83.14;99145.41;5095014;28;20463;-64
2022/12/22 12:07:45;;;;;;;16.47;13.07;;;;;;;14.39;79.84;99143.16;5096567;28;20497;-63
2022/12/22 12:10:15;;;;;;;15.77;11.30;;;;;;;14.37;79.57;99135.28;5094109;28;20465;-63
2022/12/22 12:12:50;;;;;;;13.43;10.27;;;;;;;12.86;86.14;99147.44;5101825;28;20432;-63
2022/12/22 12:15:24;;;;;;;13.53;9.93;;;;;;;12.27;88.62;99161.50;5096867;28;20473;-63
2022/12/22 12:18:14;;;;;;;12.30;9.87;;;;;;;11.19;94.95;99177.19;5085990;28;20510;-63
2022/12/22 12:21:01;;;;;;;14.03;10.37;;;;;;;10.87;97.41;99184.28;5099593;28;20471;-63
2022/12/22 12:23:40;;;;;;;15.77;10.23;;;;;;;10.55;98.77;99188.66;5090273;28;20451;-62
2022/12/22 12:26:11;;;;;;;14.90;10.60;;;;;;;10.42;100.00;99203.50;5080105;28;20555;-62
2022/12/22 12:28:48;;;;;;;12.70;9.97;;;;;;;10.12;100.00;99198.59;5098620;28;20451;-62
2022/12/22 12:31:16;;;;;;;15.40;10.00;;;;;;;9.89;100.00;99206.34;5099203;28;20524;-62
2022/12/22 12:33:48;;;;;;;12.90;9.30;;;;;;;9.86;100.00;99197.81;5101186;28;20447;-62
2022/12/22 12:36:20;;;;;;;14.97;10.50;;;;;;;9.83;100.00;99201.66;5093633;28;20468;-62
2022/12/22 12:38:55;;;;;;;14.43;10.40;;;;;;;9.60;100.00;99214.75;5100831;28;20907;-62
2022/12/22 12:41:27;;;;;;;14.87;9.63;;;;;;;9.57;100.00;99221.25;5087427;28;20753;-62
2022/12/22 12:43:54;;;;;;;13.80;9.67;;;;;;;9.68;100.00;99220.13;5073894;28;20476;-62
2022/12/22 12:46:53;;;;;;;16.33;10.93;;;;;;;9.52;100.00;99226.22;5075817;28;20487;-62
2022/12/22 12:49:56;;;;;;;17.37;10.40;;;;;;;9.54;100.00;99216.22;5065185;28;20625;-62
2022/12/22 12:53:14;;;;;;;15.37;11.03;;;;;;;9.58;100.00;99222.91;5081188;28;20472;-62
2022/12/22 12:56:02;;;;;;;17.10;10.80;;;;;;;9.86;100.00;99236.06;5072854;28;20506;-62
2022/12/22 12:58:54;;;;;;;15.20;10.80;;;;;;;9.97;100.00;99240.25;5084262;28;20473;-62
2022/12/22 13:01:58;;;;;;;16.03;11.30;;;;;;;10.28;100.00;99239.69;5079290;28;20539;-63
2022/12/22 13:05:04;;;;;;;17.67;11.43;;;;;;;10.71;98.74;99229.72;5075656;28;20702;-63
2022/12/22 13:08:20;;;;;;;18.80;10.30;;;;;;;10.41;98.29;99226.69;5077120;28;20495;-63
2022/12/22 13:11:03;;;;;;;16.50;11.67;;;;;;;10.25;97.59;99218.63;5078921;28;20495;-63
2022/12/22 13:13:47;;;;;;;17.87;10.53;;;;;;;10.13;97.44;99221.59;5060297;28;20458;-63
2022/12/22 13:16:27;;;;;;;19.53;10.70;;;;;;;9.71;97.78;99227.81;5080076;28;20468;-63
2022/12/22 13:18:57;;;;;;;15.87;10.80;;;;;;;9.75;98.48;99225.66;5083956;28;20463;-63
2022/12/22 13:21:28;;;;;;;13.70;10.37;;;;;;;9.49;98.79;99231.03;5093249;28;20479;-63
2022/12/22 13:24:01;;;;;;;13.33;9.80;;;;;;;9.64;99.80;99225.94;5089486;28;20452;-66
2022/12/22 13:26:32;;;;;;;22.87;11.90;;;;;;;9.62;99.83;99223.44;5093363;28;20486;-64
2022/12/22 13:29:01;;;;;;;17.47;12.80;;;;;;;9.59;98.82;99227.25;5080943;28;20514;-63
2022/12/22 13:31:31;;;;;;;15.17;10.03;;;;;;;9.94;97.67;99228.06;5080265;28;20509;-64
2022/12/22 13:34:05;;;;;;;15.03;11.23;;;;;;;9.81;97.68;99233.03;5079440;28;20969;-63
2022/12/22 13:36:34;;;;;;;14.37;11.87;;;;;;;9.91;97.79;99239.06;5079711;28;20472;-63
2022/12/22 13:39:01;;;;;;;18.93;12.07;;;;;;;9.81;97.23;99241.03;5077775;28;20507;-63
2022/12/22 13:41:28;;;;;;;13.10;10.30;;;;;;;9.83;96.57;99244.38;5077249;28;20787;-63
2022/12/22 13:43:58;;;;;;;16.80;12.00;;;;;;;9.70;96.96;99249.31;5080588;28;20448;-63
2022/12/22 13:46:25;;;;;;;14.00;9.93;;;;;;;9.55;97.75;99249.91;5079691;28;20496;-63
2022/12/22 13:48:54;;;;;;;13.60;10.43;;;;;;;9.29;98.58;99249.94;5078106;28;20478;-63
2022/12/22 13:51:24;;;;;;;18.87;10.43;;;;;;;9.19;98.90;99254.53;5075759;28;20476;-63
2022/12/22 13:53:55;;;;;;;17.83;10.43;;;;;;;9.15;98.97;99254.00;5080882;28;20495;-63
2022/12/22 13:56:24;;;;;;;15.20;10.50;;;;;;;8.97;100.00;99258.53;5078321;28;20480;-62
2022/12/22 13:58:54;;;;;;;19.30;11.10;;;;;;;8.99;99.84;99256.53;5079825;28;21017;-63
2022/12/22 14:01:21;;;;;;;13.67;10.50;;;;;;;8.85;99.51;99255.25;5079262;28;20479;-63
2022/12/22 14:03:50;;;;;;;16.60;11.00;;;;;;;8.89;98.53;99255.78;5079255;28;20455;-63
2022/12/22 14:06:23;;;;;;;17.07;10.40;;;;;;;8.71;98.18;99251.31;5079702;28;20484;-63
2022/12/22 14:08:50;;;;;;;17.17;10.30;;;;;;;8.85;98.23;99256.13;5079842;28;20503;-64
2022/12/22 14:11:21;;;;;;;12.37;9.43;;;;;;;8.86;97.83;99263.09;5078974;28;20474;-63
2022/12/22 14:13:48;;;;;;;17.23;10.23;;;;;;;8.76;97.92;99267.69;5080506;28;20440;-63
2022/12/22 14:16:15;;;;;;;13.80;9.80;;;;;;;8.83;98.37;99266.06;5082401;28;20476;-63
2022/12/22 14:18:42;;;;;;;14.67;10.30;;;;;;;8.73;98.83;99280.47;5080676;28;20452;-63
2022/12/22 14:21:09;;;;;;;12.77;10.50;;;;;;;8.67;99.56;99289.94;5083904;28;20470;-63
2022/12/22 14:23:38;;;;;;;15.53;11.10;;;;;;;8.57;100.00;99289.97;5100480;28;20444;-63
2022/12/22 14:26:06;;;;;;;13.10;10.87;;;;;;;8.54;100.00;99294.78;5071233;28;20566;-63
2022/12/22 14:28:38;;;;;;;15.40;11.73;;;;;;;8.40;100.00;99296.97;5074191;28;20486;-63
2022/12/22 14:31:06;;;;;;;14.53;11.50;;;;;;;8.44;100.00;99298.34;5073901;28;20483;-63
2022/12/22 14:33:34;;;;;;;18.60;11.30;;;;;;;8.44;100.00;99300.19;5068762;28;21004;-63
2022/12/22 14:36:15;;;;;;;16.27;12.10;;;;;;;8.39;100.00;99307.75;5088513;28;20476;-63
2022/12/22 14:38:43;;;;;;;25.27;13.03;;;;;;;8.44;100.00;99302.84;5080864;28;20492;-63
2022/12/22 14:41:40;;;;;;;18.63;13.50;;;;;;;8.34;100.00;99307.38;5076979;28;20539;-63
2022/12/22 14:44:02;;;;;;;20.67;13.73;;;;;;;8.28;100.00;99304.31;5078583;28;20526;-63
2022/12/22 14:46:29;;;;;;;23.30;14.37;;;;;;;8.22;100.00;99304.91;5067932;28;20484;-63
2022/12/22 14:48:58;;;;;;;21.77;13.13;;;;;;;8.24;100.00;99312.75;5078507;28;20459;-63
2022/12/22 14:51:25;;;;;;;19.77;13.43;;;;;;;8.27;100.00;99309.78;5078022;28;20526;-63
2022/12/22 14:53:54;;;;;;;19.93;12.87;;;;;;;8.26;100.00;99308.97;5067811;28;20478;-63
2022/12/22 14:56:22;;;;;;;20.10;13.30;;;;;;;8.15;100.00;99316.31;5082766;28;20475;-63
2022/12/22 14:58:50;;;;;;;19.23;13.20;;;;;;;8.15;100.00;99321.63;5086308;28;20952;-63
2022/12/22 15:01:22;;;;;;;17.77;12.57;;;;;;;8.02;100.00;99322.81;5095268;28;20467;-63
2022/12/22 15:04:06;;;;;;;20.00;13.23;;;;;;;7.98;100.00;99317.91;5103399;28;20821;-63
2022/12/22 15:06:36;;;;;;;27.10;14.60;;;;;;;7.94;100.00;99309.38;5092222;28;20487;-63
2022/12/22 15:09:26;;;;;;;21.40;11.60;;;;;;;7.98;100.00;99315.25;5102363;28;20459;-63
2022/12/22 15:11:55;;;;;;;18.53;12.73;;;;;;;7.92;100.00;99314.84;5103215;28;20530;-62
2022/12/22 15:14:23;;;;;;;20.47;12.43;;;;;;;7.88;100.00;99310.81;5103943;28;20440;-62
2022/12/22 15:16:55;;;;;;;20.53;11.70;;;;;;;7.82;100.00;99314.06;5101609;28;20907;-62
2022/12/22 15:19:22;;;;;;;17.30;12.23;;;;;;;7.82;100.00;99303.41;5101013;28;20478;-63